sensor_id;sensor_type;location;lat;lon;timestamp;pressure;altitude;pressure_sealevel;temperature;humidity
61898;BME280;47850;50.274;18.908;2023-02-28T00:01:32;99286.00;;;-1.54;62.74
61898;BME280;47850;50.274;18.908;2023-02-28T00:04:00;99284.48;;;-1.54;63.02
61898;BME280;47850;50.274;18.908;2023-02-28T00:06:28;99277.66;;;-1.56;62.96
61898;BME280;47850;50.274;18.908;2023-02-28T00:08:56;99275.67;;;-1.60;63.21
61898;BME280;47850;50.274;18.908;2023-02-28T00:11:24;99277.15;;;-1.63;63.18
61898;BME280;47850;50.274;18.908;2023-02-28T00:13:52;99279.06;;;-1.67;63.16
61898;BME280;47850;50.274;18.908;2023-02-28T00:16:21;99280.73;;;-1.71;62.90
61898;BME280;47850;50.274;18.908;2023-02-28T00:18:50;99280.45;;;-1.74;62.96
61898;BME280;47850;50.274;18.908;2023-02-28T00:21:19;99279.14;;;-1.76;63.36
61898;BME280;47850;50.274;18.908;2023-02-28T00:23:47;99279.31;;;-1.79;63.65
61898;BME280;47850;50.274;18.908;2023-02-28T00:26:15;99277.56;;;-1.83;63.29
61898;BME280;47850;50.274;18.908;2023-02-28T00:28:43;99281.80;;;-1.87;63.35
61898;BME280;47850;50.274;18.908;2023-02-28T00:31:11;99281.99;;;-1.91;63.52
61898;BME280;47850;50.274;18.908;2023-02-28T00:33:39;99282.65;;;-1.94;63.40
61898;BME280;47850;50.274;18.908;2023-02-28T00:36:09;99282.61;;;-1.96;63.97
61898;BME280;47850;50.274;18.908;2023-02-28T00:38:39;99283.73;;;-1.97;64.27
61898;BME280;47850;50.274;18.908;2023-02-28T00:41:08;99289.56;;;-1.98;64.56
61898;BME280;47850;50.274;18.908;2023-02-28T00:43:38;99289.73;;;-1.98;64.70
61898;BME280;47850;50.274;18.908;2023-02-28T00:46:06;99288.34;;;-1.98;64.78
61898;BME280;47850;50.274;18.908;2023-02-28T00:48:35;99287.52;;;-1.98;64.82
61898;BME280;47850;50.274;18.908;2023-02-28T00:51:04;99280.81;;;-1.99;64.76
61898;BME280;47850;50.274;18.908;2023-02-28T00:53:32;99287.15;;;-1.99;65.06
61898;BME280;47850;50.274;18.908;2023-02-28T00:56:00;99291.92;;;-2.00;65.27
61898;BME280;47850;50.274;18.908;2023-02-28T00:58:28;99299.36;;;-1.99;65.46
61898;BME280;47850;50.274;18.908;2023-02-28T01:00:56;99298.50;;;-1.99;65.34
61898;BME280;47850;50.274;18.908;2023-02-28T01:03:24;99293.36;;;-2.00;65.28
61898;BME280;47850;50.274;18.908;2023-02-28T01:05:52;99296.86;;;-1.99;65.54
61898;BME280;47850;50.274;18.908;2023-02-28T01:08:20;99293.15;;;-1.99;66.08
61898;BME280;47850;50.274;18.908;2023-02-28T01:10:48;99292.30;;;-1.98;66.39
61898;BME280;47850;50.274;18.908;2023-02-28T01:13:17;99294.91;;;-1.98;66.56
61898;BME280;47850;50.274;18.908;2023-02-28T01:15:53;99295.41;;;-1.98;66.53
61898;BME280;47850;50.274;18.908;2023-02-28T01:18:22;99295.16;;;-1.97;66.52
61898;BME280;47850;50.274;18.908;2023-02-28T01:20:50;99298.54;;;-1.96;66.53
61898;BME280;47850;50.274;18.908;2023-02-28T01:23:21;99295.16;;;-1.95;66.47
61898;BME280;47850;50.274;18.908;2023-02-28T01:25:51;99293.52;;;-1.93;66.68
61898;BME280;47850;50.274;18.908;2023-02-28T01:28:19;99290.30;;;-1.91;66.92
61898;BME280;47850;50.274;18.908;2023-02-28T01:30:49;99291.07;;;-1.91;66.97
61898;BME280;47850;50.274;18.908;2023-02-28T01:33:16;99283.91;;;-1.90;67.02
61898;BME280;47850;50.274;18.908;2023-02-28T01:35:44;99284.88;;;-1.91;67.19
61898;BME280;47850;50.274;18.908;2023-02-28T01:38:12;99283.06;;;-1.92;67.56
61898;BME280;47850;50.274;18.908;2023-02-28T01:40:40;99279.39;;;-1.93;67.62
61898;BME280;47850;50.274;18.908;2023-02-28T01:43:20;99277.27;;;-1.93;68.07
61898;BME280;47850;50.274;18.908;2023-02-28T01:45:48;99273.81;;;-1.94;67.96
61898;BME280;47850;50.274;18.908;2023-02-28T01:48:16;99272.09;;;-1.95;67.98
61898;BME280;47850;50.274;18.908;2023-02-28T01:50:46;99274.96;;;-1.97;68.09
61898;BME280;47850;50.274;18.908;2023-02-28T01:53:19;99274.16;;;-2.00;68.15
61898;BME280;47850;50.274;18.908;2023-02-28T01:55:50;99269.89;;;-2.02;68.15
61898;BME280;47850;50.274;18.908;2023-02-28T01:58:19;99267.05;;;-2.05;68.43
61898;BME280;47850;50.274;18.908;2023-02-28T02:00:48;99267.14;;;-2.07;68.50
61898;BME280;47850;50.274;18.908;2023-02-28T02:03:17;99269.63;;;-2.11;68.48
61898;BME280;47850;50.274;18.908;2023-02-28T02:05:48;99268.56;;;-2.15;68.90
61898;BME280;47850;50.274;18.908;2023-02-28T02:08:19;99265.77;;;-2.18;69.12
61898;BME280;47850;50.274;18.908;2023-02-28T02:10:51;99267.64;;;-2.21;69.22
61898;BME280;47850;50.274;18.908;2023-02-28T02:27:33;99270.73;;;-2.36;70.47
61898;BME280;47850;50.274;18.908;2023-02-28T02:30:21;99269.42;;;-2.39;70.90
61898;BME280;47850;50.274;18.908;2023-02-28T02:43:49;99265.50;;;-2.65;71.75
61898;BME280;47850;50.274;18.908;2023-02-28T02:46:28;99262.54;;;-2.73;71.87
61898;BME280;47850;50.274;18.908;2023-02-28T02:49:00;99259.50;;;-2.79;72.33
61898;BME280;47850;50.274;18.908;2023-02-28T02:51:32;99262.38;;;-2.88;72.28
61898;BME280;47850;50.274;18.908;2023-02-28T02:54:15;99263.61;;;-2.96;72.38
61898;BME280;47850;50.274;18.908;2023-02-28T02:56:46;99262.94;;;-3.04;72.93
61898;BME280;47850;50.274;18.908;2023-02-28T02:59:19;99264.33;;;-3.11;73.13
61898;BME280;47850;50.274;18.908;2023-02-28T03:01:53;99265.16;;;-3.18;73.47
61898;BME280;47850;50.274;18.908;2023-02-28T03:04:24;99263.84;;;-3.25;73.62
61898;BME280;47850;50.274;18.908;2023-02-28T03:06:52;99267.86;;;-3.29;73.79
61898;BME280;47850;50.274;18.908;2023-02-28T03:09:24;99268.20;;;-3.36;74.28
61898;BME280;47850;50.274;18.908;2023-02-28T03:11:54;99270.36;;;-3.43;74.59
61898;BME280;47850;50.274;18.908;2023-02-28T03:22:14;99270.18;;;-3.62;75.75
61898;BME280;47850;50.274;18.908;2023-02-28T03:27:29;99266.55;;;-3.69;76.30
61898;BME280;47850;50.274;18.908;2023-02-28T03:32:55;99269.15;;;-3.75;76.28
61898;BME280;47850;50.274;18.908;2023-02-28T03:35:35;99275.08;;;-3.78;76.40
61898;BME280;47850;50.274;18.908;2023-02-28T03:40:46;99276.36;;;-3.86;77.16
61898;BME280;47850;50.274;18.908;2023-02-28T03:43:21;99280.23;;;-3.88;77.29
61898;BME280;47850;50.274;18.908;2023-02-28T03:45:51;99282.95;;;-3.91;77.37
61898;BME280;47850;50.274;18.908;2023-02-28T03:48:28;99283.00;;;-3.94;77.75
61898;BME280;47850;50.274;18.908;2023-02-28T03:50:59;99283.77;;;-3.96;78.00
61898;BME280;47850;50.274;18.908;2023-02-28T03:53:42;99284.66;;;-3.99;78.01
61898;BME280;47850;50.274;18.908;2023-02-28T03:56:18;99285.55;;;-4.01;78.30
61898;BME280;47850;50.274;18.908;2023-02-28T03:59:12;99286.16;;;-4.01;78.53
61898;BME280;47850;50.274;18.908;2023-02-28T04:01:44;99287.43;;;-4.03;78.80
61898;BME280;47850;50.274;18.908;2023-02-28T04:04:13;99290.21;;;-4.04;78.41
61898;BME280;47850;50.274;18.908;2023-02-28T04:06:43;99288.96;;;-4.07;78.39
61898;BME280;47850;50.274;18.908;2023-02-28T04:09:13;99286.52;;;-4.10;78.63
61898;BME280;47850;50.274;18.908;2023-02-28T04:11:51;99290.89;;;-4.13;78.74
61898;BME280;47850;50.274;18.908;2023-02-28T04:14:19;99292.96;;;-4.17;78.77
61898;BME280;47850;50.274;18.908;2023-02-28T04:16:47;99292.91;;;-4.21;78.95
61898;BME280;47850;50.274;18.908;2023-02-28T04:19:15;99296.52;;;-4.24;79.04
61898;BME280;47850;50.274;18.908;2023-02-28T04:21:45;99297.52;;;-4.26;79.25
61898;BME280;47850;50.274;18.908;2023-02-28T04:24:16;99298.88;;;-4.29;79.43
61898;BME280;47850;50.274;18.908;2023-02-28T04:26:47;99299.59;;;-4.30;79.23
61898;BME280;47850;50.274;18.908;2023-02-28T04:29:19;99304.17;;;-4.31;79.29
61898;BME280;47850;50.274;18.908;2023-02-28T04:31:47;99302.56;;;-4.34;79.46
61898;BME280;47850;50.274;18.908;2023-02-28T04:34:16;99309.02;;;-4.35;79.38
61898;BME280;47850;50.274;18.908;2023-02-28T04:36:44;99311.64;;;-4.36;79.66
61898;BME280;47850;50.274;18.908;2023-02-28T04:39:13;99313.89;;;-4.37;79.55
61898;BME280;47850;50.274;18.908;2023-02-28T04:41:41;99315.36;;;-4.37;79.81
61898;BME280;47850;50.274;18.908;2023-02-28T04:44:09;99313.39;;;-4.37;79.94
61898;BME280;47850;50.274;18.908;2023-02-28T04:46:37;99316.95;;;-4.37;80.07
61898;BME280;47850;50.274;18.908;2023-02-28T04:49:04;99319.16;;;-4.38;80.07
61898;BME280;47850;50.274;18.908;2023-02-28T04:51:32;99317.89;;;-4.40;80.06
61898;BME280;47850;50.274;18.908;2023-02-28T04:54:00;99319.38;;;-4.41;80.07
61898;BME280;47850;50.274;18.908;2023-02-28T04:56:28;99320.63;;;-4.41;80.23
61898;BME280;47850;50.274;18.908;2023-02-28T04:58:55;99323.20;;;-4.41;80.17
61898;BME280;47850;50.274;18.908;2023-02-28T05:01:26;99319.95;;;-4.42;80.29
61898;BME280;47850;50.274;18.908;2023-02-28T05:03:56;99319.36;;;-4.45;80.13
61898;BME280;47850;50.274;18.908;2023-02-28T05:06:26;99318.98;;;-4.48;80.15
61898;BME280;47850;50.274;18.908;2023-02-28T05:08:54;99320.91;;;-4.49;80.31
61898;BME280;47850;50.274;18.908;2023-02-28T05:11:28;99322.39;;;-4.51;80.34
61898;BME280;47850;50.274;18.908;2023-02-28T05:13:56;99318.20;;;-4.53;80.19
61898;BME280;47850;50.274;18.908;2023-02-28T05:16:24;99318.30;;;-4.55;80.52
61898;BME280;47850;50.274;18.908;2023-02-28T05:18:52;99318.66;;;-4.56;80.60
61898;BME280;47850;50.274;18.908;2023-02-28T05:21:31;99319.31;;;-4.57;80.68
61898;BME280;47850;50.274;18.908;2023-02-28T05:24:02;99324.41;;;-4.58;80.81
61898;BME280;47850;50.274;18.908;2023-02-28T05:26:33;99328.59;;;-4.59;80.95
61898;BME280;47850;50.274;18.908;2023-02-28T05:29:01;99326.18;;;-4.61;80.82
61898;BME280;47850;50.274;18.908;2023-02-28T05:31:29;99324.83;;;-4.63;80.97
61898;BME280;47850;50.274;18.908;2023-02-28T05:33:57;99325.55;;;-4.65;81.29
61898;BME280;47850;50.274;18.908;2023-02-28T05:36:25;99327.71;;;-4.65;81.21
61898;BME280;47850;50.274;18.908;2023-02-28T05:38:53;99333.00;;;-4.66;81.27
61898;BME280;47850;50.274;18.908;2023-02-28T05:41:21;99335.23;;;-4.67;81.42
61898;BME280;47850;50.274;18.908;2023-02-28T05:43:49;99341.63;;;-4.67;81.65
61898;BME280;47850;50.274;18.908;2023-02-28T05:46:17;99343.59;;;-4.66;81.82
61898;BME280;47850;50.274;18.908;2023-02-28T05:48:47;99343.85;;;-4.65;81.98
61898;BME280;47850;50.274;18.908;2023-02-28T05:51:15;99344.48;;;-4.63;82.07
61898;BME280;47850;50.274;18.908;2023-02-28T05:53:43;99346.59;;;-4.61;81.76
61898;BME280;47850;50.274;18.908;2023-02-28T05:56:12;99347.23;;;-4.59;81.83
61898;BME280;47850;50.274;18.908;2023-02-28T05:58:39;99349.57;;;-4.56;81.87
61898;BME280;47850;50.274;18.908;2023-02-28T06:01:23;99350.77;;;-4.53;81.82
61898;BME280;47850;50.274;18.908;2023-02-28T06:03:52;99357.13;;;-4.50;81.71
61898;BME280;47850;50.274;18.908;2023-02-28T06:06:19;99357.71;;;-4.48;81.66
61898;BME280;47850;50.274;18.908;2023-02-28T06:08:47;99358.23;;;-4.45;82.03
61898;BME280;47850;50.274;18.908;2023-02-28T06:11:15;99361.13;;;-4.41;81.93
61898;BME280;47850;50.274;18.908;2023-02-28T06:13:43;99362.52;;;-4.37;81.87
61898;BME280;47850;50.274;18.908;2023-02-28T06:16:11;99360.34;;;-4.32;81.89
61898;BME280;47850;50.274;18.908;2023-02-28T06:18:39;99361.81;;;-4.28;81.60
61898;BME280;47850;50.274;18.908;2023-02-28T06:21:07;99364.91;;;-4.24;81.63
61898;BME280;47850;50.274;18.908;2023-02-28T06:23:36;99371.95;;;-4.21;81.39
61898;BME280;47850;50.274;18.908;2023-02-28T06:26:05;99380.14;;;-4.16;81.32
61898;BME280;47850;50.274;18.908;2023-02-28T06:28:33;99378.48;;;-4.11;81.28
61898;BME280;47850;50.274;18.908;2023-02-28T06:31:08;99380.67;;;-4.06;81.02
61898;BME280;47850;50.274;18.908;2023-02-28T06:33:38;99387.59;;;-4.00;80.91
61898;BME280;47850;50.274;18.908;2023-02-28T06:36:07;99391.03;;;-3.93;80.88
61898;BME280;47850;50.274;18.908;2023-02-28T06:38:37;99390.98;;;-3.89;80.64
61898;BME280;47850;50.274;18.908;2023-02-28T06:41:05;99388.85;;;-3.83;80.70
61898;BME280;47850;50.274;18.908;2023-02-28T06:43:36;99385.27;;;-3.77;80.63
61898;BME280;47850;50.274;18.908;2023-02-28T06:46:07;99385.93;;;-3.71;80.46
61898;BME280;47850;50.274;18.908;2023-02-28T06:48:36;99385.17;;;-3.65;80.18
61898;BME280;47850;50.274;18.908;2023-02-28T06:51:06;99382.50;;;-3.59;79.98
61898;BME280;47850;50.274;18.908;2023-02-28T06:53:35;99383.11;;;-3.53;79.70
61898;BME280;47850;50.274;18.908;2023-02-28T06:56:08;99389.27;;;-3.47;79.81
61898;BME280;47850;50.274;18.908;2023-02-28T06:58:37;99387.39;;;-3.42;79.41
61898;BME280;47850;50.274;18.908;2023-02-28T07:01:07;99388.57;;;-3.38;79.24
61898;BME280;47850;50.274;18.908;2023-02-28T07:03:35;99392.57;;;-3.31;79.01
61898;BME280;47850;50.274;18.908;2023-02-28T07:06:04;99394.62;;;-3.25;78.88
61898;BME280;47850;50.274;18.908;2023-02-28T07:08:34;99399.45;;;-3.18;78.78
61898;BME280;47850;50.274;18.908;2023-02-28T07:11:03;99401.23;;;-3.11;78.53
61898;BME280;47850;50.274;18.908;2023-02-28T07:13:31;99405.23;;;-3.07;78.45
61898;BME280;47850;50.274;18.908;2023-02-28T07:16:01;99404.81;;;-2.99;78.40
61898;BME280;47850;50.274;18.908;2023-02-28T07:18:30;99403.73;;;-2.91;78.39
61898;BME280;47850;50.274;18.908;2023-02-28T07:21:01;99405.09;;;-2.84;77.90
61898;BME280;47850;50.274;18.908;2023-02-28T07:23:29;99406.68;;;-2.75;77.72
61898;BME280;47850;50.274;18.908;2023-02-28T07:25:57;99407.48;;;-2.69;77.36
61898;BME280;47850;50.274;18.908;2023-02-28T07:28:25;99410.61;;;-2.62;77.42
61898;BME280;47850;50.274;18.908;2023-02-28T07:30:52;99407.91;;;-2.56;76.97
61898;BME280;47850;50.274;18.908;2023-02-28T07:33:20;99406.89;;;-2.48;76.82
61898;BME280;47850;50.274;18.908;2023-02-28T07:35:48;99410.84;;;-2.42;76.88
61898;BME280;47850;50.274;18.908;2023-02-28T07:38:16;99412.00;;;-2.34;76.62
61898;BME280;47850;50.274;18.908;2023-02-28T07:40:44;99412.66;;;-2.29;76.11
61898;BME280;47850;50.274;18.908;2023-02-28T07:43:12;99408.34;;;-2.21;75.70
61898;BME280;47850;50.274;18.908;2023-02-28T07:45:40;99410.66;;;-2.16;75.00
61898;BME280;47850;50.274;18.908;2023-02-28T07:48:08;99410.13;;;-2.11;74.78
61898;BME280;47850;50.274;18.908;2023-02-28T07:50:37;99410.16;;;-2.06;74.24
61898;BME280;47850;50.274;18.908;2023-02-28T07:53:05;99409.47;;;-2.01;74.40
61898;BME280;47850;50.274;18.908;2023-02-28T07:55:33;99409.38;;;-1.97;74.13
61898;BME280;47850;50.274;18.908;2023-02-28T07:58:01;99411.52;;;-1.95;73.28
61898;BME280;47850;50.274;18.908;2023-02-28T08:00:29;99408.71;;;-1.93;73.27
61898;BME280;47850;50.274;18.908;2023-02-28T08:02:58;99412.55;;;-1.90;73.20
61898;BME280;47850;50.274;18.908;2023-02-28T08:05:26;99407.27;;;-1.91;72.98
61898;BME280;47850;50.274;18.908;2023-02-28T08:07:54;99414.02;;;-1.86;72.71
61898;BME280;47850;50.274;18.908;2023-02-28T08:10:22;99416.36;;;-1.82;72.55
61898;BME280;47850;50.274;18.908;2023-02-28T08:12:51;99410.88;;;-1.78;72.28
61898;BME280;47850;50.274;18.908;2023-02-28T08:15:19;99413.22;;;-1.72;72.43
61898;BME280;47850;50.274;18.908;2023-02-28T08:17:47;99417.70;;;-1.66;72.38
61898;BME280;47850;50.274;18.908;2023-02-28T08:20:14;99416.02;;;-1.57;72.40
61898;BME280;47850;50.274;18.908;2023-02-28T08:22:44;99417.08;;;-1.48;72.18
61898;BME280;47850;50.274;18.908;2023-02-28T08:25:12;99414.26;;;-1.38;71.61
61898;BME280;47850;50.274;18.908;2023-02-28T08:27:40;99413.43;;;-1.27;71.21
61898;BME280;47850;50.274;18.908;2023-02-28T08:30:12;99410.52;;;-1.16;71.03
61898;BME280;47850;50.274;18.908;2023-02-28T08:32:41;99409.19;;;-1.05;70.64
61898;BME280;47850;50.274;18.908;2023-02-28T08:35:09;99406.35;;;-0.94;69.07
61898;BME280;47850;50.274;18.908;2023-02-28T08:37:37;99414.34;;;-0.86;67.50
61898;BME280;47850;50.274;18.908;2023-02-28T08:40:06;99412.72;;;-0.77;67.37
61898;BME280;47850;50.274;18.908;2023-02-28T08:42:34;99414.43;;;-0.66;66.15
61898;BME280;47850;50.274;18.908;2023-02-28T08:45:02;99417.61;;;-0.58;64.49
61898;BME280;47850;50.274;18.908;2023-02-28T08:47:31;99415.70;;;-0.48;64.81
61898;BME280;47850;50.274;18.908;2023-02-28T08:49:59;99417.48;;;-0.37;63.53
61898;BME280;47850;50.274;18.908;2023-02-28T08:52:27;99420.43;;;-0.25;63.50
61898;BME280;47850;50.274;18.908;2023-02-28T08:54:55;99418.87;;;-0.14;63.44
61898;BME280;47850;50.274;18.908;2023-02-28T08:57:22;99416.04;;;0.01;63.45
61898;BME280;47850;50.274;18.908;2023-02-28T08:59:50;99410.73;;;0.16;62.68
61898;BME280;47850;50.274;18.908;2023-02-28T09:02:19;99415.23;;;0.30;61.67
61898;BME280;47850;50.274;18.908;2023-02-28T09:04:47;99414.48;;;0.42;59.94
61898;BME280;47850;50.274;18.908;2023-02-28T09:07:15;99417.14;;;0.50;58.00
61898;BME280;47850;50.274;18.908;2023-02-28T09:09:43;99414.61;;;0.58;59.19
61898;BME280;47850;50.274;18.908;2023-02-28T09:12:25;99417.84;;;0.76;59.30
61898;BME280;47850;50.274;18.908;2023-02-28T09:14:53;99416.81;;;0.97;59.43
61898;BME280;47850;50.274;18.908;2023-02-28T09:17:21;99421.00;;;1.12;57.59
61898;BME280;47850;50.274;18.908;2023-02-28T09:19:49;99418.70;;;1.22;57.79
61898;BME280;47850;50.274;18.908;2023-02-28T09:22:17;99417.23;;;1.35;57.82
61898;BME280;47850;50.274;18.908;2023-02-28T09:24:45;99411.74;;;1.44;57.48
61898;BME280;47850;50.274;18.908;2023-02-28T09:27:13;99414.62;;;1.47;56.55
61898;BME280;47850;50.274;18.908;2023-02-28T09:29:41;99417.90;;;1.51;56.79
61898;BME280;47850;50.274;18.908;2023-02-28T09:32:09;99415.80;;;1.57;57.02
61898;BME280;47850;50.274;18.908;2023-02-28T09:34:37;99417.85;;;1.66;56.44
61898;BME280;47850;50.274;18.908;2023-02-28T09:37:05;99416.27;;;1.71;55.85
61898;BME280;47850;50.274;18.908;2023-02-28T09:39:33;99417.98;;;1.72;55.88
61898;BME280;47850;50.274;18.908;2023-02-28T09:42:02;99419.24;;;1.77;56.44
61898;BME280;47850;50.274;18.908;2023-02-28T09:44:37;99421.20;;;1.75;54.42
61898;BME280;47850;50.274;18.908;2023-02-28T09:49:56;99421.46;;;1.77;56.01
61898;BME280;47850;50.274;18.908;2023-02-28T09:52:30;99426.96;;;1.84;55.60
61898;BME280;47850;50.274;18.908;2023-02-28T09:55:18;99425.64;;;1.88;55.03
61898;BME280;47850;50.274;18.908;2023-02-28T09:57:48;99424.33;;;1.90;55.29
61898;BME280;47850;50.274;18.908;2023-02-28T10:00:34;99424.91;;;1.92;55.22
61898;BME280;47850;50.274;18.908;2023-02-28T10:06:12;99432.29;;;1.97;53.71
61898;BME280;47850;50.274;18.908;2023-02-28T10:09:03;99431.83;;;1.92;54.05
61898;BME280;47850;50.274;18.908;2023-02-28T10:11:35;99431.98;;;1.91;54.01
61898;BME280;47850;50.274;18.908;2023-02-28T10:14:25;99427.91;;;1.94;54.90
61898;BME280;47850;50.274;18.908;2023-02-28T10:17:15;99426.02;;;2.04;54.29
61898;BME280;47850;50.274;18.908;2023-02-28T10:20:09;99424.73;;;2.10;53.35
61898;BME280;47850;50.274;18.908;2023-02-28T10:25:20;99416.02;;;2.13;52.79
61898;BME280;47850;50.274;18.908;2023-02-28T10:27:50;99414.79;;;2.17;53.07
61898;BME280;47850;50.274;18.908;2023-02-28T10:30:20;99411.04;;;2.35;53.35
61898;BME280;47850;50.274;18.908;2023-02-28T10:32:52;99407.33;;;2.63;53.37
61898;BME280;47850;50.274;18.908;2023-02-28T10:35:25;99406.81;;;2.94;52.78
61898;BME280;47850;50.274;18.908;2023-02-28T10:37:56;99408.48;;;3.25;52.30
61898;BME280;47850;50.274;18.908;2023-02-28T10:45:33;99405.89;;;3.89;49.47
61898;BME280;47850;50.274;18.908;2023-02-28T10:53:39;99404.23;;;4.10;48.68
61898;BME280;47850;50.274;18.908;2023-02-28T10:56:17;99400.14;;;4.15;47.98
61898;BME280;47850;50.274;18.908;2023-02-28T11:03:59;99394.98;;;4.20;47.97
61898;BME280;47850;50.274;18.908;2023-02-28T11:06:30;99392.13;;;4.17;47.85
61898;BME280;47850;50.274;18.908;2023-02-28T11:09:03;99389.71;;;4.15;48.02
61898;BME280;47850;50.274;18.908;2023-02-28T11:11:43;99386.36;;;4.14;48.60
61898;BME280;47850;50.274;18.908;2023-02-28T11:14:31;99383.07;;;4.21;49.20
61898;BME280;47850;50.274;18.908;2023-02-28T11:17:22;99381.73;;;4.31;48.76
61898;BME280;47850;50.274;18.908;2023-02-28T11:19:56;99379.04;;;4.39;49.22
61898;BME280;47850;50.274;18.908;2023-02-28T11:22:28;99371.35;;;4.41;48.43
61898;BME280;47850;50.274;18.908;2023-02-28T11:25:01;99374.70;;;4.49;47.31
61898;BME280;47850;50.274;18.908;2023-02-28T11:29:59;99365.74;;;4.81;47.13
61898;BME280;47850;50.274;18.908;2023-02-28T11:32:30;99364.91;;;5.02;46.36
61898;BME280;47850;50.274;18.908;2023-02-28T11:37:39;99358.89;;;5.48;46.74
61898;BME280;47850;50.274;18.908;2023-02-28T11:40:15;99356.61;;;5.79;45.54
61898;BME280;47850;50.274;18.908;2023-02-28T11:51:15;99343.80;;;6.95;43.68
61898;BME280;47850;50.274;18.908;2023-02-28T11:56:47;99341.38;;;7.83;42.36
61898;BME280;47850;50.274;18.908;2023-02-28T11:59:46;99339.73;;;8.24;41.98
61898;BME280;47850;50.274;18.908;2023-02-28T12:10:30;99328.99;;;9.66;38.51
61898;BME280;47850;50.274;18.908;2023-02-28T12:13:21;99329.84;;;9.75;37.55
61898;BME280;47850;50.274;18.908;2023-02-28T12:18:56;99329.45;;;10.24;38.09
61898;BME280;47850;50.274;18.908;2023-02-28T12:27:19;99331.65;;;10.64;36.08
61898;BME280;47850;50.274;18.908;2023-02-28T12:30:04;99330.64;;;10.77;35.89
61898;BME280;47850;50.274;18.908;2023-02-28T12:32:40;99330.66;;;11.07;36.02
61898;BME280;47850;50.274;18.908;2023-02-28T12:38:34;99325.95;;;11.50;34.40
61898;BME280;47850;50.274;18.908;2023-02-28T12:40:48;99323.80;;;11.58;34.22
61898;BME280;47850;50.274;18.908;2023-02-28T12:43:19;99318.52;;;11.88;33.50
61898;BME280;47850;50.274;18.908;2023-02-28T12:45:56;99320.77;;;12.29;33.60
61898;BME280;47850;50.274;18.908;2023-02-28T12:48:31;99314.92;;;12.65;32.74
61898;BME280;47850;50.274;18.908;2023-02-28T12:51:05;99307.91;;;12.81;31.51
61898;BME280;47850;50.274;18.908;2023-02-28T12:56:44;99305.04;;;13.15;31.85
61898;BME280;47850;50.274;18.908;2023-02-28T12:59:25;99298.73;;;13.68;30.96
61898;BME280;47850;50.274;18.908;2023-02-28T13:02:01;99302.08;;;14.23;30.92
61898;BME280;47850;50.274;18.908;2023-02-28T13:04:32;99307.30;;;14.65;29.85
61898;BME280;47850;50.274;18.908;2023-02-28T13:10:04;99309.95;;;15.78;30.06
61898;BME280;47850;50.274;18.908;2023-02-28T13:12:35;99308.04;;;16.36;29.43
61898;BME280;47850;50.274;18.908;2023-02-28T13:15:25;99309.80;;;16.79;28.39
61898;BME280;47850;50.274;18.908;2023-02-28T13:17:59;99308.96;;;17.09;27.12
61898;BME280;47850;50.274;18.908;2023-02-28T13:20:35;99304.24;;;17.18;26.95
61898;BME280;47850;50.274;18.908;2023-02-28T13:24:10;99306.64;;;17.34;26.37
61898;BME280;47850;50.274;18.908;2023-02-28T13:32:39;99304.71;;;17.94;25.65
61898;BME280;47850;50.274;18.908;2023-02-28T13:42:34;99299.30;;;19.07;24.45
61898;BME280;47850;50.274;18.908;2023-02-28T13:47:36;99297.68;;;19.14;22.93
61898;BME280;47850;50.274;18.908;2023-02-28T13:53:26;99293.88;;;19.52;23.01
61898;BME280;47850;50.274;18.908;2023-02-28T14:06:29;99283.16;;;18.78;23.05
61898;BME280;47850;50.274;18.908;2023-02-28T14:11:48;99283.52;;;18.72;22.23
61898;BME280;47850;50.274;18.908;2023-02-28T14:17:04;99278.31;;;18.80;23.21
61898;BME280;47850;50.274;18.908;2023-02-28T14:19:36;99279.69;;;18.93;22.56
61898;BME280;47850;50.274;18.908;2023-02-28T14:30:56;99269.28;;;19.92;21.66
61898;BME280;47850;50.274;18.908;2023-02-28T14:36:12;99262.55;;;20.36;21.41
61898;BME280;47850;50.274;18.908;2023-02-28T14:41:29;99254.02;;;20.40;20.92
61898;BME280;47850;50.274;18.908;2023-02-28T14:44:00;99248.64;;;20.14;20.95
61898;BME280;47850;50.274;18.908;2023-02-28T14:46:39;99254.77;;;19.85;21.24
61898;BME280;47850;50.274;18.908;2023-02-28T14:52:15;99253.23;;;19.32;21.40
61898;BME280;47850;50.274;18.908;2023-02-28T14:54:44;99255.77;;;18.96;22.27
61898;BME280;47850;50.274;18.908;2023-02-28T14:57:24;99254.44;;;18.81;22.49
61898;BME280;47850;50.274;18.908;2023-02-28T15:00:30;99249.79;;;18.77;22.63
61898;BME280;47850;50.274;18.908;2023-02-28T15:02:59;99253.24;;;18.76;21.89
61898;BME280;47850;50.274;18.908;2023-02-28T15:05:33;99253.32;;;18.58;22.32
61898;BME280;47850;50.274;18.908;2023-02-28T15:10:31;99249.88;;;18.43;22.60
61898;BME280;47850;50.274;18.908;2023-02-28T15:13:04;99245.70;;;18.07;23.16
61898;BME280;47850;50.274;18.908;2023-02-28T15:15:35;99249.52;;;17.92;23.33
61898;BME280;47850;50.274;18.908;2023-02-28T15:18:13;99251.46;;;17.73;23.39
61898;BME280;47850;50.274;18.908;2023-02-28T15:20:44;99246.05;;;17.56;23.60
61898;BME280;47850;50.274;18.908;2023-02-28T15:23:14;99251.24;;;17.40;23.59
61898;BME280;47850;50.274;18.908;2023-02-28T15:25:43;99245.45;;;16.96;23.38
61898;BME280;47850;50.274;18.908;2023-02-28T15:28:18;99243.67;;;15.92;24.06
61898;BME280;47850;50.274;18.908;2023-02-28T15:31:02;99244.38;;;14.79;25.14
61898;BME280;47850;50.274;18.908;2023-02-28T15:33:32;99249.95;;;14.05;25.94
61898;BME280;47850;50.274;18.908;2023-02-28T15:36:16;99248.84;;;13.89;26.46
61898;BME280;47850;50.274;18.908;2023-02-28T15:38:51;99245.75;;;13.77;26.54
61898;BME280;47850;50.274;18.908;2023-02-28T15:41:31;99248.84;;;13.66;26.76
61898;BME280;47850;50.274;18.908;2023-02-28T15:47:01;99248.08;;;12.34;27.89
61898;BME280;47850;50.274;18.908;2023-02-28T15:52:38;99244.36;;;10.76;29.62
61898;BME280;47850;50.274;18.908;2023-02-28T15:55:32;99245.09;;;9.67;30.64
61898;BME280;47850;50.274;18.908;2023-02-28T15:58:01;99244.81;;;8.58;31.76
61898;BME280;47850;50.274;18.908;2023-02-28T16:00:30;99247.56;;;7.86;33.03
61898;BME280;47850;50.274;18.908;2023-02-28T16:03:00;99248.54;;;7.24;34.03
61898;BME280;47850;50.274;18.908;2023-02-28T16:05:31;99245.06;;;6.64;34.99